createdAt,value
2022-09-27T00:00:25.907Z,11.17
2022-09-27T00:02:52.427Z,11.20
2022-09-27T00:05:19.001Z,11.14
2022-09-27T00:07:45.816Z,11.11
2022-09-27T00:10:13.085Z,11.09
2022-09-27T00:12:40.175Z,11.13
2022-09-27T00:15:08.022Z,11.26
2022-09-27T00:17:34.315Z,11.20
2022-09-27T00:20:00.824Z,11.19
2022-09-27T00:22:28.754Z,11.31
2022-09-27T00:24:55.253Z,11.44
2022-09-27T00:27:21.662Z,11.36
2022-09-27T00:29:47.943Z,11.29
2022-09-27T00:32:14.945Z,11.42
2022-09-27T00:34:41.808Z,11.43
2022-09-27T00:37:09.247Z,11.48
2022-09-27T00:39:35.716Z,11.43
2022-09-27T00:42:01.999Z,11.47
2022-09-27T00:44:33.546Z,11.48
2022-09-27T00:47:04.175Z,11.51
2022-09-27T00:49:35.893Z,11.46
2022-09-27T00:52:11.129Z,11.49
2022-09-27T00:54:40.820Z,11.56
2022-09-27T00:57:07.151Z,11.57
2022-09-27T00:59:49.499Z,11.63
2022-09-27T01:02:16.097Z,11.58
2022-09-27T01:04:44.627Z,11.59
2022-09-27T01:07:11.327Z,11.59
2022-09-27T01:09:37.911Z,11.55
2022-09-27T01:12:25.208Z,11.46
2022-09-27T01:15:34.681Z,11.46
2022-09-27T01:18:17.651Z,11.37
2022-09-27T01:20:50.059Z,11.35
2022-09-27T01:23:54.116Z,11.27
2022-09-27T01:26:26.386Z,11.16
2022-09-27T01:29:16.264Z,11.19
2022-09-27T01:31:52.741Z,11.21
2022-09-27T01:34:30.033Z,11.10
2022-09-27T01:37:02.976Z,11.09
2022-09-27T01:40:02.527Z,11.04
2022-09-27T01:42:53.325Z,11.00
2022-09-27T01:46:00.948Z,10.86
2022-09-27T01:48:34.037Z,10.74
2022-09-27T01:51:11.293Z,10.55
2022-09-27T01:53:41.584Z,10.51
2022-09-27T01:56:15.922Z,10.51
2022-09-27T01:58:53.609Z,10.58
2022-09-27T02:01:22.700Z,10.51
2022-09-27T02:03:52.165Z,10.47
2022-09-27T02:06:24.448Z,10.47
2022-09-27T02:09:01.327Z,10.44
2022-09-27T02:11:28.003Z,10.41
2022-09-27T02:14:04.327Z,10.42
2022-09-27T02:16:42.462Z,10.38
2022-09-27T02:19:40.089Z,10.44
2022-09-27T02:22:29.522Z,10.44
2022-09-27T02:25:05.891Z,10.63
2022-09-27T02:27:59.033Z,10.83
2022-09-27T02:30:25.362Z,10.82
2022-09-27T02:32:52.274Z,10.89
2022-09-27T02:35:31.997Z,11.15
2022-09-27T02:37:58.942Z,10.92
2022-09-27T02:40:30.096Z,10.89
2022-09-27T02:42:57.268Z,10.84
2022-09-27T02:45:24.201Z,10.76
2022-09-27T02:48:21.249Z,10.76
2022-09-27T02:51:15.617Z,10.83
2022-09-27T02:54:02.610Z,10.78
2022-09-27T02:56:40.196Z,10.55
2022-09-27T02:59:43.849Z,10.54
2022-09-27T03:02:21.421Z,10.63
2022-09-27T03:05:01.167Z,10.56
2022-09-27T03:07:27.675Z,10.45
2022-09-27T03:09:55.011Z,10.51
2022-09-27T03:12:28.401Z,10.39
2022-09-27T03:15:00.027Z,10.25
2022-09-27T03:17:26.797Z,10.16
2022-09-27T03:19:53.195Z,10.17
2022-09-27T03:22:19.504Z,10.16
2022-09-27T03:24:45.830Z,10.07
2022-09-27T03:27:12.435Z,9.98
2022-09-27T03:29:38.723Z,9.97
2022-09-27T03:32:05.033Z,9.94
2022-09-27T03:34:31.393Z,9.93
2022-09-27T03:36:57.713Z,9.86
2022-09-27T03:39:24.031Z,9.83
2022-09-27T03:41:50.490Z,9.68
2022-09-27T03:44:16.771Z,9.65
2022-09-27T03:46:43.110Z,9.64
2022-09-27T03:49:09.414Z,9.82
2022-09-27T03:51:35.715Z,9.79
2022-09-27T03:54:02.076Z,9.87
2022-09-27T03:56:28.412Z,9.79
2022-09-27T03:58:54.699Z,9.80
2022-09-27T04:01:21.106Z,9.75
2022-09-27T04:03:47.531Z,9.80
2022-09-27T04:06:15.063Z,9.91
2022-09-27T04:08:41.535Z,10.00
2022-09-27T04:11:07.838Z,9.87
2022-09-27T04:13:34.199Z,9.75
2022-09-27T04:16:03.073Z,9.80
2022-09-27T04:18:29.966Z,9.76
2022-09-27T04:20:56.260Z,9.82
2022-09-27T04:23:27.618Z,9.79
2022-09-27T04:25:56.033Z,9.82
2022-09-27T04:28:22.634Z,9.81
2022-09-27T04:30:49.014Z,9.83
2022-09-27T04:33:15.675Z,9.87
2022-09-27T04:36:21.711Z,9.83
2022-09-27T04:38:48.791Z,9.90
2022-09-27T04:41:15.331Z,9.93
2022-09-27T04:43:41.659Z,10.02
2022-09-27T04:46:08.091Z,10.08
2022-09-27T04:48:34.695Z,10.05
2022-09-27T04:51:02.371Z,10.13
2022-09-27T04:53:32.135Z,10.14
2022-09-27T04:56:05.849Z,10.09
2022-09-27T04:58:34.163Z,10.13
2022-09-27T05:01:03.371Z,10.01
2022-09-27T05:03:33.054Z,10.06
2022-09-27T05:06:00.585Z,10.16
2022-09-27T05:08:27.355Z,10.22
2022-09-27T05:10:54.378Z,10.22
2022-09-27T05:13:20.890Z,10.27
2022-09-27T05:15:47.449Z,10.20
2022-09-27T05:18:13.785Z,10.19
2022-09-27T05:20:40.122Z,10.16
2022-09-27T05:23:06.477Z,10.19
2022-09-27T05:25:33.237Z,10.19
2022-09-27T05:27:59.677Z,10.25
2022-09-27T05:30:27.355Z,10.23
2022-09-27T05:32:54.454Z,10.24
2022-09-27T05:35:21.100Z,10.22
2022-09-27T05:37:55.735Z,10.25
2022-09-27T05:40:40.132Z,10.23
2022-09-27T05:43:07.547Z,10.22
2022-09-27T05:45:34.942Z,10.11
2022-09-27T05:48:01.869Z,10.14
2022-09-27T05:50:28.340Z,10.15
2022-09-27T05:52:54.962Z,10.17
2022-09-27T05:55:21.710Z,10.32
2022-09-27T05:58:09.804Z,10.20
2022-09-27T06:00:38.097Z,10.18
2022-09-27T06:03:07.998Z,10.09
2022-09-27T06:05:38.685Z,10.10
2022-09-27T06:08:10.583Z,10.11
2022-09-27T06:10:38.433Z,10.03
2022-09-27T06:13:13.202Z,9.94
2022-09-27T06:15:41.740Z,9.93
2022-09-27T06:18:11.022Z,9.98
2022-09-27T06:20:39.381Z,9.96
2022-09-27T06:23:11.809Z,9.98
2022-09-27T06:25:39.029Z,9.91
2022-09-27T06:28:05.395Z,10.05
2022-09-27T06:30:32.118Z,10.00
2022-09-27T06:33:02.570Z,9.97
2022-09-27T06:35:31.046Z,9.97
2022-09-27T06:37:57.349Z,9.88
2022-09-27T06:40:27.048Z,9.86
2022-09-27T06:42:53.610Z,9.90
2022-09-27T06:45:20.226Z,10.03
2022-09-27T06:47:47.131Z,10.12
2022-09-27T06:50:14.308Z,10.01
2022-09-27T06:52:47.839Z,9.94
2022-09-27T06:55:14.783Z,9.91
2022-09-27T06:57:59.821Z,9.89
2022-09-27T07:00:27.117Z,9.93
2022-09-27T07:03:00.781Z,9.86
2022-09-27T07:05:29.093Z,9.99
2022-09-27T07:07:59.222Z,9.90
2022-09-27T07:10:27.828Z,9.90
2022-09-27T07:12:54.870Z,9.93
2022-09-27T07:15:21.681Z,9.70
2022-09-27T07:17:55.479Z,9.75
2022-09-27T07:20:21.804Z,9.86
2022-09-27T07:22:48.134Z,9.81
2022-09-27T07:25:14.753Z,9.91
2022-09-27T07:27:41.887Z,9.76
2022-09-27T07:30:09.959Z,9.71
2022-09-27T07:32:36.835Z,9.73
2022-09-27T07:35:07.910Z,9.74
2022-09-27T07:37:35.649Z,9.82
2022-09-27T07:40:03.167Z,9.74
2022-09-27T07:42:29.501Z,9.87
2022-09-27T07:44:56.026Z,9.90
2022-09-27T07:47:24.706Z,9.70
2022-09-27T07:49:56.254Z,9.77
2022-09-27T07:52:22.821Z,9.77
2022-09-27T07:54:49.193Z,9.76
2022-09-27T07:57:16.129Z,9.67
2022-09-27T07:59:42.741Z,9.72
2022-09-27T08:02:15.110Z,9.77
2022-09-27T08:04:43.511Z,9.88
2022-09-27T08:07:14.304Z,10.01
2022-09-27T08:09:41.017Z,10.22
2022-09-27T08:12:08.252Z,10.15
2022-09-27T08:14:39.772Z,10.35
2022-09-27T08:17:13.208Z,10.45
2022-09-27T08:19:40.577Z,10.57
2022-09-27T08:22:07.877Z,10.48
2022-09-27T08:24:34.360Z,10.50
2022-09-27T08:27:03.020Z,10.61
2022-09-27T08:29:29.367Z,10.59
2022-09-27T08:31:55.754Z,10.69
2022-09-27T08:34:22.820Z,10.59
2022-09-27T08:36:49.176Z,10.70
2022-09-27T08:39:16.063Z,10.68
2022-09-27T08:41:55.965Z,10.70
2022-09-27T08:44:44.120Z,10.89
2022-09-27T08:47:33.799Z,11.07
2022-09-27T08:50:18.231Z,10.99
2022-09-27T08:52:54.907Z,11.03
2022-09-27T08:55:37.351Z,11.09
2022-09-27T08:58:13.472Z,11.19
2022-09-27T09:00:42.373Z,11.14
2022-09-27T09:03:18.975Z,11.00
2022-09-27T09:05:56.054Z,11.05
2022-09-27T09:09:01.417Z,11.03
2022-09-27T09:12:23.383Z,11.08
2022-09-27T09:15:00.541Z,11.10
2022-09-27T09:17:47.638Z,11.09
2022-09-27T09:20:44.066Z,11.12
2022-09-27T09:23:39.523Z,11.35
2022-09-27T09:26:12.257Z,11.50
2022-09-27T09:28:53.904Z,11.47
2022-09-27T09:31:45.052Z,11.49
2022-09-27T09:34:26.655Z,11.61
2022-09-27T09:37:21.886Z,11.45
2022-09-27T09:39:58.331Z,11.52
2022-09-27T09:42:33.339Z,11.52
2022-09-27T09:45:09.996Z,11.56
2022-09-27T09:47:40.547Z,11.56
2022-09-27T09:50:45.025Z,11.57
2022-09-27T09:53:19.239Z,11.63
2022-09-27T09:55:57.709Z,11.52
2022-09-27T09:58:43.402Z,11.67
2022-09-27T10:01:22.225Z,11.50
2022-09-27T10:03:48.919Z,11.53
2022-09-27T10:06:16.829Z,11.54
2022-09-27T10:08:44.048Z,11.77
2022-09-27T10:11:21.566Z,11.78
2022-09-27T10:13:48.440Z,11.70
2022-09-27T10:16:19.436Z,11.91
2022-09-27T10:18:49.997Z,11.93
2022-09-27T10:21:25.783Z,11.96
2022-09-27T10:24:12.278Z,11.98
2022-09-27T10:26:44.684Z,11.95
2022-09-27T10:29:37.321Z,11.88
2022-09-27T10:32:17.964Z,11.71
2022-09-27T10:34:44.610Z,11.43
2022-09-27T10:37:19.946Z,10.65
2022-09-27T10:39:47.561Z,10.36
2022-09-27T10:42:22.811Z,10.19
2022-09-27T10:44:49.433Z,10.03
2022-09-27T10:47:23.002Z,10.06
2022-09-27T10:50:05.171Z,10.56
2022-09-27T10:52:31.601Z,9.76
2022-09-27T10:55:05.233Z,9.47
2022-09-27T10:57:32.329Z,9.56
2022-09-27T11:00:00.451Z,9.55
2022-09-27T11:02:33.255Z,9.36
2022-09-27T11:05:16.008Z,9.51
2022-09-27T11:07:59.554Z,9.49
2022-09-27T11:10:36.283Z,9.67
2022-09-27T11:13:14.419Z,9.64
2022-09-27T11:16:18.830Z,9.58
2022-09-27T11:19:04.085Z,9.74
2022-09-27T11:22:06.010Z,9.84
2022-09-27T11:25:09.431Z,9.76
2022-09-27T11:27:43.028Z,9.82
2022-09-27T11:30:23.774Z,10.13
2022-09-27T11:33:26.703Z,10.29
2022-09-27T11:36:04.863Z,10.50
2022-09-27T11:38:52.829Z,10.59
2022-09-27T11:41:31.723Z,10.59
2022-09-27T11:44:27.728Z,10.72
2022-09-27T11:47:17.591Z,10.91
2022-09-27T11:50:05.799Z,10.86
2022-09-27T11:52:58.279Z,10.91
2022-09-27T11:55:36.002Z,10.77
2022-09-27T11:58:22.556Z,11.07
2022-09-27T12:01:05.521Z,11.34
2022-09-27T12:03:59.237Z,11.32
2022-09-27T12:06:49.968Z,11.60
2022-09-27T12:09:22.458Z,11.62
2022-09-27T12:11:54.669Z,11.64
2022-09-27T12:14:29.983Z,11.75
2022-09-27T12:16:57.640Z,11.76
2022-09-27T12:19:28.657Z,11.78
2022-09-27T12:21:57.826Z,11.85
2022-09-27T12:24:25.151Z,11.72
2022-09-27T12:27:00.135Z,11.50
2022-09-27T12:29:33.244Z,11.57
2022-09-27T12:32:08.829Z,11.40
2022-09-27T12:34:40.779Z,11.47
2022-09-27T12:37:25.397Z,11.47
2022-09-27T12:40:01.631Z,11.38
2022-09-27T12:45:16.269Z,11.71
2022-09-27T12:47:55.426Z,12.09
2022-09-27T12:50:47.851Z,12.28
2022-09-27T12:53:23.273Z,12.19
2022-09-27T12:56:05.724Z,12.25
2022-09-27T12:59:00.287Z,12.19
2022-09-27T13:01:58.229Z,12.39
2022-09-27T13:04:45.368Z,12.41
2022-09-27T13:07:21.177Z,12.50
2022-09-27T13:09:56.875Z,12.73
2022-09-27T13:12:27.142Z,12.57
2022-09-27T13:15:07.589Z,12.69
2022-09-27T13:17:46.026Z,12.74
2022-09-27T13:20:27.636Z,12.65
2022-09-27T13:22:55.094Z,12.54
2022-09-27T13:25:50.529Z,12.45
2022-09-27T13:28:28.637Z,12.45
2022-09-27T13:31:01.236Z,12.46
2022-09-27T13:33:43.111Z,12.42
2022-09-27T13:36:25.952Z,12.40
2022-09-27T13:39:17.463Z,12.41
2022-09-27T13:41:48.435Z,12.37
2022-09-27T13:44:25.143Z,12.35
2022-09-27T13:47:33.261Z,12.27
2022-09-27T13:50:14.857Z,12.16
2022-09-27T13:52:45.008Z,12.22
2022-09-27T13:55:46.877Z,12.26
2022-09-27T13:58:19.425Z,12.10
2022-09-27T14:00:50.439Z,11.99
2022-09-27T14:03:31.107Z,12.10
2022-09-27T14:06:08.449Z,11.97
2022-09-27T14:08:40.429Z,12.00
2022-09-27T14:11:16.862Z,11.94
2022-09-27T14:13:45.622Z,12.00
2022-09-27T14:16:16.281Z,11.98
2022-09-27T14:19:02.546Z,12.04
2022-09-27T14:21:38.858Z,11.97
2022-09-27T14:24:25.746Z,11.87
2022-09-27T14:27:14.158Z,11.94
2022-09-27T14:30:04.348Z,11.73
2022-09-27T14:32:34.670Z,11.37
2022-09-27T14:35:06.422Z,11.21
2022-09-27T14:37:33.177Z,11.03
2022-09-27T14:40:43.909Z,10.97
2022-09-27T14:43:15.685Z,10.64
2022-09-27T14:45:42.385Z,10.58
2022-09-27T14:48:28.434Z,10.53
2022-09-27T14:51:05.693Z,10.18
2022-09-27T14:53:41.254Z,10.20
2022-09-27T15:06:37.173Z,10.49
2022-09-27T15:16:25.760Z,10.60
2022-09-27T15:17:21.208Z,10.49
2022-09-27T15:21:00.886Z,10.40
2022-09-27T15:23:36.126Z,10.50
2022-09-27T15:26:24.160Z,10.50
2022-09-27T15:28:52.549Z,10.62
2022-09-27T15:31:34.862Z,10.70
2022-09-27T15:37:57.288Z,11.08
2022-09-27T15:40:45.419Z,11.04
2022-09-27T15:43:40.300Z,11.15
2022-09-27T15:46:21.813Z,11.09
2022-09-27T15:49:25.514Z,11.18
2022-09-27T15:51:55.830Z,11.09
2022-09-27T15:54:24.778Z,11.02
2022-09-27T15:56:55.529Z,10.96
2022-09-27T15:59:27.396Z,10.91
2022-09-27T16:01:58.829Z,10.85
2022-09-27T16:04:26.359Z,11.05
2022-09-27T16:06:55.366Z,10.85
2022-09-27T16:09:22.055Z,10.45
2022-09-27T16:11:50.021Z,10.28
2022-09-27T16:14:18.462Z,10.07
2022-09-27T16:16:48.092Z,9.69
2022-09-27T16:19:14.568Z,9.83
2022-09-27T16:21:42.829Z,9.95
2022-09-27T16:24:12.296Z,9.76
2022-09-27T16:26:39.302Z,9.78
2022-09-27T16:29:11.042Z,9.65
2022-09-27T16:31:37.735Z,9.71
2022-09-27T16:34:04.105Z,9.77
2022-09-27T16:36:30.393Z,9.78
2022-09-27T16:38:56.698Z,9.85
2022-09-27T16:41:23.428Z,9.88
2022-09-27T16:43:49.749Z,9.89
2022-09-27T16:46:18.928Z,9.66
2022-09-27T16:48:46.958Z,9.75
2022-09-27T16:51:35.939Z,9.66
2022-09-27T16:54:05.491Z,9.85
2022-09-27T16:56:33.180Z,9.95
2022-09-27T16:59:03.359Z,10.00
2022-09-27T17:01:32.724Z,10.01
2022-09-27T17:03:59.641Z,9.88
2022-09-27T17:06:31.707Z,9.87
2022-09-27T17:09:00.754Z,10.04
2022-09-27T17:11:27.126Z,10.12
2022-09-27T17:13:54.832Z,10.12
2022-09-27T17:16:22.243Z,9.99
2022-09-27T17:18:48.739Z,10.07
2022-09-27T17:21:46.001Z,9.93
2022-09-27T17:24:11.501Z,10.15
2022-09-27T17:26:38.029Z,9.96
2022-09-27T17:29:04.495Z,9.96
2022-09-27T17:31:33.863Z,10.09
2022-09-27T17:34:00.474Z,10.30
2022-09-27T17:36:37.406Z,10.35
2022-09-27T17:39:04.923Z,10.21
2022-09-27T17:41:37.593Z,10.21
2022-09-27T17:44:06.451Z,10.17
2022-09-27T17:46:37.195Z,10.20
2022-09-27T17:49:22.788Z,10.27
2022-09-27T17:51:51.995Z,10.14
2022-09-27T17:54:28.149Z,10.22
2022-09-27T17:56:56.215Z,10.00
2022-09-27T17:59:22.926Z,10.03
2022-09-27T18:01:49.599Z,10.07
2022-09-27T18:04:18.601Z,10.30
2022-09-27T18:06:46.691Z,10.25
2022-09-27T18:09:15.953Z,10.22
2022-09-27T18:11:44.082Z,10.12
2022-09-27T18:14:11.134Z,10.30
2022-09-27T18:16:42.750Z,10.30
2022-09-27T18:19:13.160Z,10.36
2022-09-27T18:21:39.711Z,10.33
2022-09-27T18:24:06.845Z,10.32
2022-09-27T18:26:36.591Z,10.38
2022-09-27T18:29:09.782Z,10.32
2022-09-27T18:31:36.386Z,10.30
2022-09-27T18:34:04.201Z,10.30
2022-09-27T18:36:31.174Z,10.33
2022-09-27T18:38:59.991Z,10.39
2022-09-27T18:41:29.040Z,10.40
2022-09-27T18:43:58.825Z,10.41
2022-09-27T18:46:36.144Z,10.41
2022-09-27T18:49:05.493Z,10.47
2022-09-27T18:51:32.637Z,10.47
2022-09-27T18:54:01.508Z,10.43
2022-09-27T18:56:31.778Z,10.53
2022-09-27T18:58:58.327Z,10.46
2022-09-27T19:01:25.638Z,10.40
2022-09-27T19:03:55.157Z,10.34
2022-09-27T19:06:23.335Z,10.28
2022-09-27T19:08:58.592Z,10.33
2022-09-27T19:11:26.932Z,10.33
2022-09-27T19:17:24.446Z,10.41
2022-09-27T19:19:52.150Z,10.39
2022-09-27T19:22:28.440Z,10.49
2022-09-27T19:24:58.768Z,10.45
2022-09-27T19:27:52.997Z,10.35
2022-09-27T19:30:23.414Z,10.37
2022-09-27T19:32:58.212Z,10.30
2022-09-27T19:45:13.093Z,9.98
2022-09-27T19:57:00.522Z,10.15
2022-09-27T19:59:34.268Z,10.16
2022-09-27T20:02:04.254Z,10.33
2022-09-27T20:04:30.947Z,10.34
2022-09-27T20:06:57.602Z,10.35
2022-09-27T20:10:14.518Z,10.48
2022-09-27T20:12:52.193Z,10.35
2022-09-27T20:15:33.231Z,10.48
2022-09-27T20:18:23.673Z,10.42
2022-09-27T20:24:21.335Z,10.33
2022-09-27T20:26:51.031Z,10.35
2022-09-27T20:29:17.624Z,10.41
2022-09-27T20:32:15.444Z,10.36
2022-09-27T20:34:33.641Z,10.40
2022-09-27T20:37:00.120Z,10.34
2022-09-27T20:39:28.910Z,10.33
2022-09-27T20:41:55.433Z,10.33
2022-09-27T20:56:24.331Z,10.28
2022-09-27T20:59:17.445Z,10.28
2022-09-27T21:02:35.224Z,10.32
2022-09-27T21:08:20.608Z,10.19
2022-09-27T21:10:50.466Z,10.27
2022-09-27T21:13:25.837Z,10.32
2022-09-27T21:15:52.223Z,10.29
2022-09-27T21:18:21.663Z,10.31
2022-09-27T21:20:56.760Z,10.30
2022-09-27T21:23:23.079Z,10.37
2022-09-27T21:25:50.482Z,10.32
2022-09-27T21:28:17.180Z,10.30
2022-09-27T21:30:43.705Z,10.33
2022-09-27T21:33:11.197Z,10.31
2022-09-27T21:35:37.542Z,10.30
2022-09-27T21:38:03.836Z,10.34
2022-09-27T21:40:31.365Z,10.39
2022-09-27T21:42:58.029Z,10.36
2022-09-27T21:45:24.446Z,10.39
2022-09-27T21:47:50.774Z,10.46
2022-09-27T21:50:17.331Z,10.50
2022-09-27T21:52:43.630Z,10.34
2022-09-27T21:55:09.964Z,10.23
2022-09-27T21:57:36.284Z,10.38
2022-09-27T22:00:02.733Z,10.28
2022-09-27T22:02:29.850Z,10.19
2022-09-27T22:04:56.208Z,10.19
2022-09-27T22:07:22.683Z,10.19
2022-09-27T22:09:49.515Z,10.08
2022-09-27T22:12:15.850Z,10.08
2022-09-27T22:14:42.163Z,10.09
2022-09-27T22:17:08.481Z,10.09
2022-09-27T22:19:34.772Z,10.09
2022-09-27T22:22:01.072Z,10.08
2022-09-27T22:24:27.405Z,10.07
2022-09-27T22:26:54.094Z,10.06
2022-09-27T22:29:20.587Z,10.10
2022-09-27T22:31:47.352Z,10.15
2022-09-27T22:34:18.190Z,10.20
2022-09-27T22:36:44.687Z,10.15
2022-09-27T22:39:11.016Z,10.20
2022-09-27T22:41:37.499Z,10.16
2022-09-27T22:44:03.973Z,10.14
2022-09-27T22:46:30.391Z,10.20
2022-09-27T22:48:56.897Z,10.20
2022-09-27T22:51:23.208Z,10.21
2022-09-27T22:53:49.708Z,10.28
2022-09-27T22:56:20.537Z,10.30
2022-09-27T22:58:48.393Z,10.27
2022-09-27T23:01:23.312Z,10.31
2022-09-27T23:03:52.016Z,10.28
2022-09-27T23:06:20.045Z,10.32
2022-09-27T23:08:47.287Z,10.28
2022-09-27T23:11:17.552Z,10.29
2022-09-27T23:13:43.899Z,10.37
2022-09-27T23:16:13.627Z,10.43
2022-09-27T23:18:40.221Z,10.37
2022-09-27T23:21:08.870Z,10.43
2022-09-27T23:23:37.322Z,10.63
2022-09-27T23:26:06.611Z,10.57
2022-09-27T23:28:33.903Z,10.50
2022-09-27T23:31:08.553Z,10.52
2022-09-27T23:33:39.708Z,10.55
2022-09-27T23:36:08.916Z,10.64
2022-09-27T23:38:36.250Z,10.71
2022-09-27T23:41:02.822Z,10.66
2022-09-27T23:43:29.412Z,10.78
2022-09-27T23:45:57.075Z,10.78
2022-09-27T23:48:26.774Z,10.75
2022-09-27T23:50:53.198Z,10.70
2022-09-27T23:53:21.065Z,10.69
2022-09-27T23:55:48.525Z,10.62
2022-09-27T23:58:14.962Z,10.68
